Terminal Aerodrome Forecast
Issued by NWS

Home | Current Version | Previous Version | Graphics & Text | Print | Product List | Glossary On
Versions: 1 2 3 4 5 6 7 8 9 10 11 12 13 14
000
FTUS43 KIWX 300200 AAA
TAFSBN
TAF AMD
KSBN 300236Z 3003/3024 34014G20KT 6SM BR BKN005
     FM300500 36010G18KT 5SM BR VCSH OVC008
     FM301400 35010KT P6SM OVC010=

USA.gov is the U.S. government's official web portal to all federal, state and local government web resources and services.